createdAt,value
2023-02-09T00:02:10.700Z,6.77
2023-02-09T00:09:28.614Z,7.43
2023-02-09T00:12:56.421Z,6.97
2023-02-09T00:16:17.798Z,7.60
2023-02-09T00:19:50.612Z,7.83
2023-02-09T00:23:07.472Z,6.77
2023-02-09T00:26:41.587Z,7.57
2023-02-09T00:29:58.930Z,7.13
2023-02-09T00:33:09.087Z,6.97
2023-02-09T00:36:23.629Z,6.83
2023-02-09T00:39:43.076Z,7.07
2023-02-09T00:43:11.086Z,7.23
2023-02-09T00:46:55.062Z,6.93
2023-02-09T00:50:10.149Z,6.37
2023-02-09T00:53:25.313Z,6.53
2023-02-09T00:56:54.554Z,6.30
2023-02-09T01:00:24.731Z,5.63
2023-02-09T01:03:45.986Z,6.77
2023-02-09T01:06:56.978Z,6.17
2023-02-09T01:10:32.443Z,5.80
2023-02-09T01:14:14.621Z,6.70
2023-02-09T01:17:34.877Z,6.50
2023-02-09T01:21:07.376Z,5.90
2023-02-09T01:24:52.440Z,6.47
2023-02-09T01:28:32.282Z,6.73
2023-02-09T01:31:58.505Z,7.27
2023-02-09T01:35:13.915Z,6.23
2023-02-09T01:38:43.556Z,6.77
2023-02-09T01:42:01.191Z,6.77
2023-02-09T01:45:40.871Z,7.27
2023-02-09T01:49:02.429Z,7.00
2023-02-09T01:52:53.150Z,6.27
2023-02-09T02:03:48.904Z,6.57
2023-02-09T02:11:12.853Z,6.00
2023-02-09T02:14:49.717Z,5.87
2023-02-09T02:18:32.710Z,5.63
2023-02-09T02:22:39.658Z,6.83
2023-02-09T02:26:42.001Z,6.03
2023-02-09T02:30:55.164Z,6.83
2023-02-09T02:34:31.924Z,6.90
2023-02-09T02:38:13.727Z,6.23
2023-02-09T02:45:08.271Z,6.47
2023-02-09T02:52:26.781Z,5.50
2023-02-09T02:56:06.923Z,5.70
2023-02-09T02:59:30.632Z,6.90
2023-02-09T03:03:15.076Z,5.80
2023-02-09T03:10:03.331Z,5.33
2023-02-09T03:13:43.264Z,6.30
2023-02-09T03:17:06.194Z,6.73
2023-02-09T03:20:22.103Z,7.90
2023-02-09T03:23:42.400Z,5.97
2023-02-09T03:27:29.968Z,6.30
2023-02-09T03:30:58.035Z,5.80
2023-02-09T03:34:23.464Z,6.60
2023-02-09T03:37:33.887Z,6.10
2023-02-09T03:41:00.963Z,6.67
2023-02-09T03:44:32.223Z,8.30
2023-02-09T03:48:11.578Z,6.13
2023-02-09T03:51:29.684Z,7.10
2023-02-09T03:54:51.642Z,6.30
2023-02-09T03:58:23.716Z,6.87
2023-02-09T04:01:56.787Z,7.20
2023-02-09T04:05:23.850Z,6.70
2023-02-09T04:09:15.828Z,6.93
2023-02-09T04:12:34.438Z,5.77
2023-02-09T04:15:59.671Z,7.20
2023-02-09T04:22:59.482Z,6.83
2023-02-09T04:29:34.075Z,6.90
2023-02-09T04:32:41.819Z,7.00
2023-02-09T04:35:51.896Z,6.00
2023-02-09T04:39:00.016Z,6.63
2023-02-09T04:42:08.312Z,7.57
2023-02-09T04:45:15.308Z,7.00
2023-02-09T04:48:29.398Z,6.37
2023-02-09T04:51:41.700Z,7.20
2023-02-09T04:54:50.581Z,6.83
2023-02-09T04:58:16.244Z,6.80
2023-02-09T05:01:28.050Z,6.80
2023-02-09T05:04:35.560Z,7.23
2023-02-09T05:07:49.979Z,6.23
2023-02-09T05:11:01.468Z,8.03
2023-02-09T05:14:08.317Z,6.00
2023-02-09T05:17:16.044Z,7.77
2023-02-09T05:20:32.654Z,7.70
2023-02-09T05:23:41.213Z,6.87
2023-02-09T05:26:49.511Z,7.40
2023-02-09T05:29:58.670Z,7.20
2023-02-09T05:33:34.206Z,7.10
2023-02-09T05:36:54.780Z,7.27
2023-02-09T05:40:42.148Z,7.07
2023-02-09T05:44:01.814Z,6.47
2023-02-09T05:47:44.976Z,6.90
2023-02-09T05:51:12.402Z,7.33
2023-02-09T05:54:56.637Z,6.63
2023-02-09T05:58:09.499Z,8.10
2023-02-09T06:01:53.264Z,7.90
2023-02-09T06:05:11.933Z,7.73
2023-02-09T06:09:04.094Z,7.07
2023-02-09T06:12:46.846Z,9.13
2023-02-09T06:16:36.572Z,6.83
2023-02-09T06:20:30.273Z,8.33
2023-02-09T06:23:45.844Z,6.97
2023-02-09T06:39:28.537Z,8.47
2023-02-09T06:43:45.319Z,9.20
2023-02-09T06:57:04.928Z,8.67
2023-02-09T07:40:35.949Z,10.70
2023-02-09T07:44:19.209Z,9.70
2023-02-09T08:18:31.969Z,10.83
2023-02-09T08:21:49.642Z,12.43
2023-02-09T08:25:14.981Z,11.20
2023-02-09T08:28:42.718Z,12.23
2023-02-09T08:32:04.837Z,11.33
2023-02-09T08:35:32.873Z,12.20
2023-02-09T08:46:41.166Z,11.07
2023-02-09T08:50:10.994Z,11.43
2023-02-09T08:53:30.325Z,13.50
2023-02-09T08:56:59.737Z,11.83
2023-02-09T09:00:39.361Z,12.37
2023-02-09T09:04:21.910Z,13.03
2023-02-09T09:07:40.586Z,12.57
2023-02-09T09:14:27.510Z,13.23
2023-02-09T09:17:36.357Z,13.50
2023-02-09T09:21:08.203Z,13.27
2023-02-09T09:24:24.074Z,13.43
2023-02-09T09:28:00.045Z,13.97
2023-02-09T09:31:21.792Z,12.83
2023-02-09T09:34:36.454Z,12.17
2023-02-09T09:38:24.139Z,13.30
2023-02-09T09:41:51.995Z,14.27
2023-02-09T09:45:16.008Z,13.77
2023-02-09T09:48:46.062Z,12.83
2023-02-09T09:59:51.994Z,13.43
2023-02-09T10:06:48.623Z,14.57
2023-02-09T10:10:24.719Z,14.27
2023-02-09T10:14:48.622Z,14.83
2023-02-09T10:18:14.658Z,15.10
2023-02-09T10:25:04.450Z,14.82
2023-02-09T10:41:07.844Z,13.68
2023-02-09T16:31:47.492Z,9.50
2023-02-09T16:35:17.582Z,8.70
2023-02-09T16:38:34.146Z,9.33
2023-02-09T16:41:55.364Z,9.43
2023-02-09T16:45:22.784Z,9.13
2023-02-09T16:48:52.439Z,9.40
2023-02-09T16:52:02.530Z,8.80
2023-02-09T16:55:24.432Z,8.10
2023-02-09T16:58:37.301Z,9.20
2023-02-09T17:01:50.220Z,8.53
2023-02-09T17:05:00.546Z,7.87
2023-02-09T17:08:27.742Z,7.13
2023-02-09T17:11:45.196Z,9.00
2023-02-09T17:14:53.029Z,7.53
2023-02-09T17:18:02.175Z,7.33
2023-02-09T17:21:08.736Z,7.80
2023-02-09T17:24:17.013Z,7.37
2023-02-09T17:27:19.838Z,8.80
2023-02-09T17:30:22.556Z,7.53
2023-02-09T17:33:27.460Z,8.10
2023-02-09T17:36:32.011Z,7.97
2023-02-09T17:39:34.917Z,8.57
2023-02-09T17:42:38.656Z,8.23
2023-02-09T17:45:47.666Z,8.37
2023-02-09T17:48:50.570Z,8.67
2023-02-09T17:51:54.646Z,9.60
2023-02-09T17:54:57.426Z,9.10
2023-02-09T17:58:01.265Z,9.67
2023-02-09T18:01:20.185Z,9.83
2023-02-09T18:04:26.678Z,9.50
2023-02-09T18:07:31.122Z,10.03
2023-02-09T18:10:33.995Z,10.60
2023-02-09T18:13:36.645Z,10.10
2023-02-09T18:16:39.297Z,10.17
2023-02-09T18:19:42.048Z,10.70
2023-02-09T18:22:46.139Z,11.13
2023-02-09T18:25:50.907Z,11.03
2023-02-09T18:28:53.571Z,11.40
2023-02-09T18:31:56.635Z,11.03
2023-02-09T18:34:59.264Z,10.43
2023-02-09T18:38:06.102Z,10.70
2023-02-09T18:41:11.249Z,10.43
2023-02-09T18:44:14.132Z,9.97
2023-02-09T18:47:17.212Z,9.77
2023-02-09T18:50:21.631Z,10.60
2023-02-09T18:53:25.714Z,9.97
2023-02-09T18:56:28.472Z,9.83
2023-02-09T18:59:32.381Z,10.07
2023-02-09T19:02:35.253Z,10.77
2023-02-09T19:05:38.078Z,10.93
2023-02-09T19:08:42.276Z,11.67
2023-02-09T19:11:45.336Z,11.70
2023-02-09T19:14:48.408Z,12.83
2023-02-09T19:17:51.440Z,11.63
2023-02-09T19:20:55.588Z,12.63
2023-02-09T19:23:59.692Z,13.07
2023-02-09T19:27:03.570Z,13.13
2023-02-09T19:30:06.875Z,12.67
2023-02-09T19:33:09.520Z,11.57
2023-02-09T19:36:12.299Z,10.97
2023-02-09T19:39:17.334Z,11.30
2023-02-09T19:42:20.948Z,10.30
2023-02-09T19:45:24.086Z,10.80
2023-02-09T19:48:26.837Z,10.90
2023-02-09T19:51:29.538Z,12.43
2023-02-09T19:54:35.030Z,12.83
2023-02-09T19:57:37.715Z,14.03
2023-02-09T20:00:40.359Z,13.53
2023-02-09T20:03:43.649Z,14.17
2023-02-09T20:06:46.355Z,12.80
2023-02-09T20:09:52.299Z,12.53
2023-02-09T20:12:57.090Z,9.93
2023-02-09T20:15:59.775Z,11.63
2023-02-09T20:19:02.456Z,11.83
2023-02-09T20:22:05.189Z,13.33
2023-02-09T20:25:10.598Z,10.73
2023-02-09T20:28:13.622Z,11.43
2023-02-09T20:31:19.635Z,12.07
2023-02-09T20:34:22.652Z,11.73
2023-02-09T20:37:25.773Z,10.10
2023-02-09T20:40:30.803Z,10.00
2023-02-09T20:43:50.983Z,10.23
2023-02-09T20:46:59.629Z,11.43
2023-02-09T20:50:02.389Z,10.87
2023-02-09T20:53:05.116Z,9.67
2023-02-09T20:56:09.602Z,9.83
2023-02-09T20:59:13.498Z,10.37
2023-02-09T21:02:16.259Z,9.33
2023-02-09T21:05:19.014Z,11.13
2023-02-09T21:08:22.818Z,10.23
2023-02-09T21:11:27.014Z,9.13
2023-02-09T21:14:41.848Z,9.67
2023-02-09T21:17:48.436Z,10.77
2023-02-09T21:20:51.492Z,10.13
2023-02-09T21:23:54.790Z,11.17
2023-02-09T21:27:00.610Z,11.03
2023-02-09T21:30:03.897Z,10.53
2023-02-09T21:33:06.556Z,11.57
2023-02-09T21:36:10.132Z,10.60
2023-02-09T21:39:13.122Z,10.67
2023-02-09T21:42:31.183Z,11.33
2023-02-09T21:45:33.978Z,10.87
2023-02-09T21:48:36.722Z,11.70
2023-02-09T21:51:39.641Z,10.63
2023-02-09T21:54:42.293Z,11.60
2023-02-09T21:57:46.275Z,10.83
2023-02-09T22:00:57.512Z,10.97
2023-02-09T22:04:00.611Z,11.33
2023-02-09T22:07:03.281Z,10.27
2023-02-09T22:10:06.744Z,10.23
2023-02-09T22:13:10.736Z,9.20
2023-02-09T22:16:19.693Z,11.00
2023-02-09T22:19:22.568Z,9.53
2023-02-09T22:22:25.287Z,11.60
2023-02-09T22:25:28.973Z,9.20
2023-02-09T22:28:36.005Z,10.87
2023-02-09T22:31:39.024Z,10.13
2023-02-09T22:34:41.754Z,10.37
2023-02-09T22:37:44.453Z,10.37
2023-02-09T22:40:47.123Z,9.87
2023-02-09T22:43:53.104Z,10.77
2023-02-09T22:46:56.131Z,10.53
2023-02-09T22:49:58.848Z,10.23
2023-02-09T22:53:01.548Z,9.97
2023-02-09T22:56:04.796Z,8.93
2023-02-09T22:59:09.372Z,10.40
2023-02-09T23:02:12.706Z,10.33
2023-02-09T23:05:15.436Z,9.67
2023-02-09T23:08:18.423Z,9.57
2023-02-09T23:11:21.366Z,9.47
2023-02-09T23:14:25.452Z,9.33
2023-02-09T23:20:32.156Z,9.50
2023-02-09T23:23:35.417Z,9.67
2023-02-09T23:26:39.658Z,9.83
2023-02-09T23:29:43.884Z,10.03
2023-02-09T23:32:47.410Z,11.10
2023-02-09T23:35:50.139Z,10.00
2023-02-09T23:38:54.182Z,10.87
2023-02-09T23:41:56.937Z,10.57
2023-02-09T23:45:00.991Z,9.07
2023-02-09T23:48:03.684Z,10.23
2023-02-09T23:51:08.788Z,9.87
2023-02-09T23:54:11.579Z,9.40
2023-02-09T23:57:14.254Z,10.43
